avis per tempestes more information blitzortung!


avis per Pluja more information rain snow radar


Visita la nostra xarxa de llocs de meteo:

Template documentation
and downloads

And another site



Thunderstorms From: 18-09-2018 09:00 Until: 19-09-2018 20:59 warning for: Thunderstorms Level: Yellow info button
Rain From: 18-09-2018 09:00 Until: 19-09-2018 20:59 warning for: Rain Level: Yellow info button

Pagina Historial Weather Underground text

Diari Resum Juny 5, 2017 Unitats:  Imperial    Mètric   Tant
« Previous Dia
SegĂźent Dia »
Diari Setmana Mensual Anual Personalitzada
  Maxima: Minima: Media:
Temperatura: TemperatureC °F 14.7 °F 20 °F
Punt de rosada: DewpointC °F 9.3 °F 13.3 °F
Humitat: Humidity % 46 % 68 %
Wind Speed: WindSpeedKMH mph 0.0 mph 6.8 mph
RĂ fegues de vent: WindSpeedGustKMH mph - -
Vent:- - SW
Pression baro: PressurehPa in 1010.0 in -
Precipitacions: 5.3 in    
Historical Graphs
 
 
Dades de taula per Juny 5, 2017
Temps Temperatura Punt de rosada Pression baro Vent Wind Speed RĂ fegues de vent Humitat Rainfall Rate (Hourly)
TemperatureC °F DewpointC °F PressurehPa in Calm     Humidity % HourlyPrecipMM in
00:00 15.0 °F 13.0 °F 1013.8 in SW 1.6 mph 3.2 mph 88 % 0.0 in
00:01 18.0 °F 14.5 °F 1012.8 in NNW 3.7 mph   80 % 0.0 in
00:06 17.9 °F 14.4 °F 1013.8 in NNE 3.7 mph 3.7 mph 80 % 0.0 in
00:10 14.9 °F 13.1 °F 1013.8 in Calm   3.2 mph 89 % 1.0 in
00:20 14.9 °F 13.1 °F 1012.8 in SW 3.2 mph 3.2 mph 89 % 1.0 in
00:30 14.9 °F 13.1 °F 1012.8 in SW 1.6 mph 3.2 mph 89 % 0.0 in
00:40 14.8 °F 13.0 °F 1012.8 in SW 1.6 mph 4.8 mph 89 % 0.0 in
00:50 14.8 °F 13.0 °F 1013.8 in SW 3.2 mph 4.8 mph 89 % 0.0 in
01:00 14.8 °F 13.0 °F 1013.8 in SW 3.2 mph 3.2 mph 89 % 0.0 in
01:10 14.8 °F 13.3 °F 1013.8 in Calm   3.2 mph 91 % 0.0 in
01:20 14.8 °F 13.2 °F 1013.8 in SW 1.6 mph 3.2 mph 90 % 0.0 in
01:30 14.8 °F 13.3 °F 1013.8 in SW 1.6 mph 3.2 mph 91 % 0.0 in
01:40 14.8 °F 13.3 °F 1013.8 in Calm     91 % 0.0 in
01:50 14.7 °F 13.1 °F 1013.8 in SW 3.2 mph 6.4 mph 90 % 0.0 in
02:00 14.8 °F 13.2 °F 1013.8 in SW 3.2 mph 4.8 mph 90 % 0.0 in
02:10 14.9 °F 13.4 °F 1013.8 in SW 1.6 mph 4.8 mph 91 % 0.0 in
02:20 14.9 °F 13.6 °F 1013.8 in SW 1.6 mph 3.2 mph 92 % 0.0 in
02:30 14.9 °F 13.6 °F 1013.8 in SW 1.6 mph 3.2 mph 92 % 0.0 in
02:40 14.9 °F 13.6 °F 1013.8 in Calm   3.2 mph 92 % 0.0 in
02:50 14.9 °F 13.8 °F 1013.8 in Calm     93 % 0.0 in
03:00 14.9 °F 13.8 °F 1013.8 in Calm   1.6 mph 93 % 0.0 in
03:10 15.0 °F 13.9 °F 1014.8 in Calm   1.6 mph 93 % 0.0 in
03:20 15.0 °F 13.9 °F 1013.8 in Calm   3.2 mph 93 % 0.0 in
03:30 15.1 °F 14.0 °F 1013.8 in Calm   1.6 mph 93 % 0.0 in
03:40 15.1 °F 14.0 °F 1013.8 in SW 1.6 mph 3.2 mph 93 % 0.0 in
03:50 15.1 °F 14.0 °F 1013.8 in SW 1.6 mph 3.2 mph 93 % 0.0 in
04:00 15.1 °F 14.0 °F 1013.8 in WSW 1.6 mph 4.8 mph 93 % 1.0 in
04:10 15.1 °F 14.0 °F 1013.8 in WSW 1.6 mph 3.2 mph 93 % 1.0 in
04:20 15.3 °F 14.2 °F 1013.8 in SW 1.6 mph 3.2 mph 93 % 0.0 in
04:30 15.3 °F 14.2 °F 1013.8 in WSW 1.6 mph 4.8 mph 93 % 0.0 in
04:35 15.4 °F 14.3 °F 1013.8 in Calm     93 % 0.0 in
09:36 15.4 °F 14.3 °F 1014.8 in Calm   1.9 mph 93 % 1.0 in
09:41 15.5 °F 14.6 °F 1014.8 in Calm     94 % 1.0 in
09:46 15.5 °F 14.6 °F 1014.8 in SSW 1.9 mph   94 % 1.0 in
09:51 15.6 °F 14.6 °F 1014.8 in Calm     94 % 1.0 in
09:56 15.6 °F 14.6 °F 1014.8 in Calm     94 % 1.0 in
10:01 15.7 °F 14.7 °F 1014.8 in SW 1.9 mph   94 % 1.0 in
10:06 15.7 °F 14.7 °F 1014.8 in SW 3.7 mph 3.7 mph 94 % 1.0 in
10:11 15.7 °F 14.7 °F 1014.8 in SW 5.6 mph 5.6 mph 94 % 1.0 in
10:16 15.8 °F 14.8 °F 1014.8 in SW 7.4 mph 7.4 mph 94 % 0.0 in
10:21 15.7 °F 14.7 °F 1014.8 in SW 3.7 mph 3.7 mph 94 % 0.0 in
10:26 15.8 °F 14.8 °F 1014.8 in SW 3.7 mph 3.7 mph 94 % 0.0 in
10:31 15.8 °F 14.8 °F 1014.8 in SW 3.7 mph 3.7 mph 94 % 0.0 in
10:36 15.9 °F 14.9 °F 1015.8 in SW 3.7 mph 3.7 mph 94 % 0.0 in
10:41 16.0 °F 15.1 °F 1015.8 in SSW 1.9 mph   94 % 0.0 in
10:46 16.0 °F 15.1 °F 1015.8 in SW 3.7 mph 3.7 mph 94 % 0.0 in
10:51 16.2 °F 15.2 °F 1015.8 in WSW 3.7 mph 3.7 mph 94 % 0.0 in
10:56 16.3 °F 15.3 °F 1015.8 in West 1.9 mph   94 % 0.0 in
11:01 16.3 °F 15.3 °F 1015.8 in WSW 3.7 mph 3.7 mph 94 % 0.0 in
11:06 16.3 °F 15.2 °F 1014.8 in WSW 3.7 mph 3.7 mph 93 % 0.0 in
11:11 16.4 °F 15.3 °F 1014.8 in WSW 1.9 mph   93 % 0.0 in
11:16 16.7 °F 15.6 °F 1014.8 in SW 4.7 mph   93 % 0.0 in
11:21 16.8 °F 15.7 °F 1015.8 in West 3.7 mph 3.7 mph 93 % 0.0 in
11:26 16.9 °F 15.6 °F 1015.8 in SW 2.3 mph   92 % 0.0 in
11:31 17.0 °F 15.5 °F 1015.8 in SW 1.9 mph   91 % 0.0 in
11:36 17.2 °F 15.7 °F 1015.8 in Calm     91 % 0.0 in
11:37 17.2 °F 15.7 °F 1015.8 in Calm     91 % 0.0 in
11:42 17.4 °F 15.9 °F 1015.8 in SW 1.9 mph   91 % 0.0 in
11:47 17.4 °F 15.7 °F 1015.8 in WNW 3.7 mph 3.7 mph 90 % 0.0 in
11:52 17.4 °F 15.7 °F 1016.8 in NW 5.6 mph 5.6 mph 90 % 0.0 in
11:57 17.4 °F 15.6 °F 1016.8 in South 3.7 mph 3.7 mph 89 % 0.0 in
12:02 17.4 °F 15.4 °F 1016.8 in NNW 1.9 mph   88 % 0.0 in
12:07 17.4 °F 15.2 °F 1015.8 in NW 1.9 mph   87 % 0.0 in
12:12 17.4 °F 15.1 °F 1015.8 in WSW 1.9 mph 1.9 mph 86 % 0.0 in
12:17 17.6 °F 15.4 °F 1015.8 in WSW 1.9 mph 1.9 mph 87 % 0.0 in
12:22 17.8 °F 15.6 °F 1015.8 in WSW 3.7 mph 3.7 mph 87 % 0.0 in
12:27 17.8 °F 15.4 °F 1015.8 in SW 3.7 mph 3.7 mph 86 % 0.0 in
12:32 17.8 °F 15.4 °F 1015.8 in WNW 3.7 mph 3.7 mph 86 % 0.0 in
12:37 17.9 °F 15.3 °F 1015.8 in WSW 3.7 mph 3.7 mph 85 % 0.0 in
12:42 18.0 °F 15.3 °F 1015.8 in SSE 5.6 mph 5.6 mph 84 % 0.0 in
12:47 18.3 °F 15.6 °F 1015.8 in West 4.7 mph 4.7 mph 84 % 0.0 in
12:52 18.7 °F 15.8 °F 1014.8 in SW 3.7 mph 3.7 mph 83 % 0.0 in
12:53 18.8 °F 15.8 °F 1014.8 in WSW 7.4 mph 7.4 mph 83 % 0.0 in
12:58 19.3 °F 15.9 °F 1014.8 in West 7.4 mph 7.4 mph 81 % 0.0 in
13:03 19.9 °F 16.3 °F 1014.8 in SSW 5.6 mph 5.6 mph 80 % 0.0 in
13:08 20.5 °F 16.7 °F 1014.8 in WSW 9.3 mph 9.3 mph 79 % 0.0 in
13:13 20.8 °F 16.8 °F 1014.8 in West 5.6 mph 5.6 mph 78 % 0.0 in
13:18 20.4 °F 16.2 °F 1014.8 in South 7.4 mph 7.4 mph 77 % 0.0 in
13:23 20.5 °F 16.1 °F 1014.8 in West 9.3 mph 9.3 mph 76 % 0.0 in
13:28 20.7 °F 16.1 °F 1014.8 in WSW 7.4 mph 7.4 mph 75 % 0.0 in
13:33 21.1 °F 16.1 °F 1013.8 in WNW 13.0 mph 13.0 mph 73 % 0.0 in
13:38 21.3 °F 16.1 °F 1013.8 in SW 11.1 mph 11.1 mph 72 % 0.0 in
13:43 21.6 °F 16.1 °F 1013.8 in NNW 11.4 mph 11.4 mph 71 % 0.0 in
13:48 21.9 °F 16.2 °F 1014.8 in NW 7.4 mph 7.4 mph 70 % 0.0 in
13:53 22.1 °F 15.9 °F 1014.8 in SW 6.9 mph 6.9 mph 68 % 0.0 in
13:58 22.3 °F 16.1 °F 1014.8 in WSW 9.3 mph 9.3 mph 68 % 0.0 in
14:03 22.1 °F 15.7 °F 1014.8 in West 7.4 mph 7.4 mph 67 % 0.0 in
14:13 22.5 °F 15.3 °F 1014.8 in WSW 14.8 mph 14.8 mph 64 % 0.0 in
14:18 22.8 °F 15.9 °F 1013.8 in South 8.7 mph 8.7 mph 65 % 0.0 in
14:23 23.2 °F 15.8 °F 1013.8 in WSW 9.3 mph 9.3 mph 63 % 0.0 in
14:28 23.7 °F 16.2 °F 1013.8 in SW 3.7 mph 3.7 mph 63 % 0.0 in
14:33 24.0 °F 16.0 °F 1013.8 in SW 9.3 mph 9.3 mph 61 % 0.0 in
14:38 23.6 °F 15.6 °F 1013.8 in SW 5.6 mph 5.6 mph 61 % 0.0 in
14:43 24.0 °F 15.8 °F 1013.8 in South 5.6 mph 5.6 mph 60 % 0.0 in
14:48 24.0 °F 14.9 °F 1013.8 in WSW 9.3 mph 9.3 mph 57 % 0.0 in
14:53 24.7 °F 16.4 °F 1013.8 in SSE 5.8 mph 5.8 mph 60 % 0.0 in
14:58 24.8 °F 16.0 °F 1013.8 in SW 9.3 mph 9.3 mph 58 % 0.0 in
15:03 24.7 °F 15.9 °F 1013.8 in South 9.3 mph 9.3 mph 58 % 0.0 in
15:08 25.3 °F 16.2 °F 1013.8 in SW 5.6 mph 5.6 mph 57 % 0.0 in
15:13 25.5 °F 15.5 °F 1013.8 in SSW 7.9 mph 7.9 mph 54 % 0.0 in
15:18 25.4 °F 15.7 °F 1012.8 in West 3.7 mph 3.7 mph 55 % 0.0 in
15:23 25.0 °F 15.3 °F 1012.8 in SSW 10.0 mph 10.0 mph 55 % 0.0 in
15:28 24.7 °F 15.3 °F 1012.8 in South 5.6 mph 5.6 mph 56 % 0.0 in
15:33 25.1 °F 15.1 °F 1013.8 in SSW 10.0 mph 10.0 mph 54 % 0.0 in
15:38 24.9 °F 15.2 °F 1013.8 in SW 9.3 mph 9.3 mph 55 % 0.0 in
15:43 24.4 °F 14.8 °F 1013.8 in SW 9.3 mph 9.3 mph 55 % 0.0 in
15:48 24.3 °F 14.4 °F 1013.8 in South 13.0 mph 13.0 mph 54 % 0.0 in
15:53 24.5 °F 14.9 °F 1013.8 in South 9.3 mph 9.3 mph 55 % 0.0 in
15:58 25.2 °F 14.9 °F 1013.8 in SSW 5.6 mph 5.6 mph 53 % 0.0 in
16:03 25.4 °F 15.1 °F 1012.8 in SW 11.1 mph 11.1 mph 53 % 0.0 in
16:08 24.5 °F 14.3 °F 1012.8 in SW 3.7 mph 3.7 mph 53 % 0.0 in
16:13 24.8 °F 14.8 °F 1012.8 in SW 1.9 mph 1.9 mph 54 % 0.0 in
16:23 25.0 °F 14.4 °F 1011.7 in WNW 9.3 mph 9.3 mph 52 % 0.0 in
16:28 25.1 °F 14.6 °F 1011.7 in SSW 4.2 mph 4.7 mph 52 % 0.0 in
16:33 24.6 °F 14.4 °F 1012.8 in SW 13.7 mph 13.7 mph 53 % 0.0 in
16:38 24.2 °F 14.0 °F 1012.8 in SW 7.4 mph 7.4 mph 53 % 0.0 in
16:43 24.1 °F 13.9 °F 1012.8 in WNW 7.4 mph 7.4 mph 53 % 0.0 in
16:48 23.8 °F 13.3 °F 1011.7 in SW 13.0 mph 13.0 mph 52 % 0.0 in
16:53 24.2 °F 13.7 °F 1011.7 in WSW 9.3 mph 9.3 mph 52 % 0.0 in
16:58 25.1 °F 14.6 °F 1011.7 in SW 6.9 mph 6.9 mph 52 % 0.0 in
17:03 25.7 °F 14.8 °F 1011.7 in West 7.4 mph 7.4 mph 51 % 0.0 in
17:08 25.5 °F 14.3 °F 1011.7 in WSW 13.0 mph 13.0 mph 50 % 0.0 in
17:13 25.2 °F 14.1 °F 1011.7 in WSW 7.4 mph 7.4 mph 50 % 0.0 in
17:18 24.5 °F 13.7 °F 1011.7 in SW 7.4 mph 7.4 mph 51 % 0.0 in
17:23 24.3 °F 13.5 °F 1011.7 in SW 3.9 mph   51 % 0.0 in
17:28 24.8 °F 14.0 °F 1011.7 in SW 9.3 mph 9.3 mph 51 % 0.0 in
17:33 24.7 °F 13.9 °F 1011.7 in SW 9.3 mph 9.3 mph 51 % 0.0 in
17:38 24.6 °F 13.5 °F 1011.7 in WSW 9.3 mph 9.3 mph 50 % 0.0 in
17:43 24.9 °F 13.8 °F 1011.7 in South 11.1 mph 11.1 mph 50 % 0.0 in
17:48 25.2 °F 13.7 °F 1010.7 in SW 9.5 mph 9.5 mph 49 % 0.0 in
17:53 25.4 °F 13.9 °F 1010.7 in WSW 9.3 mph 9.3 mph 49 % 0.0 in
17:58 25.6 °F 13.8 °F 1010.7 in SW 10.0 mph 10.0 mph 48 % 0.0 in
18:03 25.5 °F 13.7 °F 1010.7 in West 9.3 mph 9.3 mph 48 % 0.0 in
18:08 24.8 °F 13.3 °F 1010.7 in South 9.3 mph 9.3 mph 49 % 0.0 in
18:13 24.6 °F 13.2 °F 1010.7 in SSW 9.3 mph 9.3 mph 49 % 0.0 in
18:18 24.8 °F 13.1 °F 1010.0 in WSW 7.4 mph 7.4 mph 48 % 0.0 in
18:23 25.1 °F 13.0 °F 1010.0 in WSW 13.0 mph 13.0 mph 47 % 0.0 in
18:28 25.0 °F 12.6 °F 1010.0 in South 10.3 mph 10.3 mph 46 % 0.0 in
18:33 24.8 °F 12.7 °F 1010.0 in WSW 14.8 mph 14.8 mph 47 % 0.0 in
18:38 24.2 °F 11.8 °F 1010.0 in WSW 13.0 mph 13.0 mph 46 % 0.0 in
18:43 24.3 °F 12.3 °F 1010.0 in West 14.8 mph 14.8 mph 47 % 0.0 in
18:48 24.4 °F 12.3 °F 1010.7 in West 17.2 mph 17.2 mph 47 % 0.0 in
18:53 24.2 °F 12.2 °F 1010.7 in SW 13.0 mph 13.0 mph 47 % 0.0 in
18:58 24.3 °F 12.3 °F 1010.7 in SW 13.0 mph 13.0 mph 47 % 0.0 in
19:03 24.2 °F 11.8 °F 1010.0 in SSW 14.8 mph 14.8 mph 46 % 0.0 in
19:08 24.0 °F 12.0 °F 1010.0 in SW 9.3 mph 9.3 mph 47 % 0.0 in
19:13 23.6 °F 11.6 °F 1010.0 in SW 11.1 mph 11.1 mph 47 % 0.0 in
19:18 23.3 °F 11.3 °F 1010.7 in WSW 13.0 mph 13.0 mph 47 % 0.0 in
19:23 23.3 °F 11.3 °F 1010.7 in SW 7.4 mph 7.4 mph 47 % 0.0 in
19:28 23.3 °F 11.3 °F 1010.7 in SW 11.1 mph 11.1 mph 47 % 0.0 in
19:33 23.0 °F 11.1 °F 1010.7 in SW 11.1 mph 11.1 mph 47 % 0.0 in
19:38 22.8 °F 11.5 °F 1010.7 in SW 13.0 mph 13.0 mph 49 % 0.0 in
19:43 22.7 °F 11.4 °F 1010.7 in SW 11.1 mph 11.1 mph 49 % 0.0 in
19:48 22.6 °F 11.3 °F 1010.7 in SW 7.4 mph 7.4 mph 49 % 0.0 in
19:53 22.7 °F 11.4 °F 1010.7 in SSW 5.6 mph 5.6 mph 49 % 0.0 in
19:58 22.6 °F 11.3 °F 1010.7 in SW 11.1 mph 11.1 mph 49 % 0.0 in
20:03 22.5 °F 11.2 °F 1010.7 in SW 13.0 mph 13.0 mph 49 % 0.0 in
20:08 22.5 °F 10.9 °F 1010.7 in SSW 8.7 mph 8.7 mph 48 % 0.0 in
20:13 22.4 °F 10.6 °F 1010.7 in SW 16.7 mph 16.7 mph 47 % 0.0 in
20:18 22.4 °F 10.8 °F 1010.7 in WSW 16.4 mph 16.4 mph 48 % 0.0 in
20:23 22.3 °F 10.4 °F 1010.7 in SW 13.0 mph 13.0 mph 47 % 0.0 in
20:28 22.2 °F 10.3 °F 1010.7 in SW 13.0 mph 13.0 mph 47 % 0.0 in
20:33 22.1 °F 10.3 °F 1011.7 in SW 11.1 mph 11.1 mph 47 % 0.0 in
20:38 22.0 °F 10.2 °F 1011.7 in SW 9.3 mph 9.3 mph 47 % 0.0 in
20:43 21.7 °F 9.9 °F 1011.7 in SSW 11.1 mph 11.1 mph 47 % 0.0 in
20:48 21.6 °F 9.8 °F 1011.7 in SSW 13.0 mph 13.0 mph 47 % 0.0 in
20:53 21.4 °F 9.9 °F 1011.7 in SSW 13.0 mph 13.0 mph 48 % 0.0 in
20:58 21.2 °F 9.7 °F 1011.7 in SW 11.1 mph 11.1 mph 48 % 0.0 in
21:03 21.1 °F 9.7 °F 1010.7 in SW 14.8 mph 14.8 mph 48 % 0.0 in
21:08 20.9 °F 9.8 °F 1010.7 in SW 13.0 mph 13.0 mph 49 % 0.0 in
21:13 20.7 °F 9.6 °F 1010.7 in WSW 12.2 mph 12.2 mph 49 % 0.0 in
21:18 20.5 °F 9.4 °F 1010.7 in South 9.3 mph 9.3 mph 49 % 0.0 in
21:23 20.4 °F 9.6 °F 1010.7 in WSW 16.7 mph 16.7 mph 50 % 0.0 in
21:28 20.2 °F 9.4 °F 1010.7 in SW 9.3 mph 9.3 mph 50 % 0.0 in
21:33 20.1 °F 9.3 °F 1011.7 in SW 11.1 mph 11.1 mph 50 % 0.0 in
21:38 20.0 °F 9.6 °F 1011.7 in WSW 9.3 mph 9.5 mph 51 % 0.0 in
21:43 19.9 °F 9.4 °F 1011.7 in WSW 13.7 mph 13.7 mph 51 % 0.0 in
21:48 19.7 °F 9.6 °F 1011.7 in SW 11.9 mph 11.9 mph 52 % 0.0 in
21:53 19.5 °F 9.7 °F 1011.7 in SW 12.6 mph 12.6 mph 53 % 0.0 in
21:58 19.4 °F 9.8 °F 1011.7 in SW 7.4 mph 7.4 mph 54 % 0.0 in
22:03 19.2 °F 9.9 °F 1011.7 in SSW 7.9 mph 7.9 mph 55 % 0.0 in
22:08 19.1 °F 10.1 °F 1011.7 in SW 11.4 mph 11.4 mph 56 % 0.0 in
22:13 19.1 °F 10.7 °F 1011.7 in WSW 9.3 mph 9.3 mph 58 % 0.0 in
22:18 19.0 °F 10.6 °F 1011.7 in SW 9.3 mph 9.3 mph 58 % 0.0 in
22:23 19.0 °F 10.8 °F 1011.7 in SW 9.3 mph 9.3 mph 59 % 0.0 in
22:28 18.9 °F 10.9 °F 1011.7 in SW 13.0 mph 13.0 mph 60 % 0.0 in
22:33 18.8 °F 11.1 °F 1011.7 in South 11.1 mph 11.1 mph 61 % 0.0 in
22:38 18.7 °F 11.0 °F 1011.7 in SW 7.4 mph 7.4 mph 61 % 0.0 in
22:43 18.6 °F 10.9 °F 1011.7 in SW 5.8 mph 5.8 mph 61 % 0.0 in
22:48 18.5 °F 10.8 °F 1011.7 in SW 7.4 mph 7.4 mph 61 % 0.0 in
22:53 18.4 °F 11.0 °F 1011.7 in SW 5.6 mph 5.6 mph 62 % 0.0 in
22:58 18.3 °F 10.9 °F 1011.7 in SSW 5.8 mph 5.8 mph 62 % 0.0 in
22:59 18.3 °F 10.9 °F 1011.7 in SSW 5.8 mph 5.8 mph 62 % 0.0 in
23:04 18.2 °F 10.8 °F 1011.7 in SW 5.0 mph 5.0 mph 62 % 0.0 in
23:09 18.1 °F 10.9 °F 1011.7 in WSW 5.6 mph 5.6 mph 63 % 0.0 in
23:14 18.0 °F 10.8 °F 1011.7 in SW 7.4 mph 7.4 mph 63 % 0.0 in
23:19 18.0 °F 10.8 °F 1011.7 in SSW 5.6 mph 5.6 mph 63 % 0.0 in
23:24 17.9 °F 10.8 °F 1011.7 in SW 3.7 mph 3.7 mph 63 % 0.0 in
23:29 17.8 °F 10.7 °F 1011.7 in SW 4.7 mph 4.7 mph 63 % 0.0 in
23:31 17.8 °F 10.7 °F 1011.7 in SW 5.6 mph 5.6 mph 63 % 0.0 in
23:36 17.7 °F 10.6 °F 1012.8 in SW 5.6 mph 5.6 mph 63 % 0.0 in
23:41 17.6 °F 10.7 °F 1012.8 in SW 4.7 mph 4.7 mph 64 % 0.0 in
23:46 17.5 °F 10.4 °F 1012.8 in SSW 7.4 mph 7.4 mph 63 % 0.0 in
23:51 17.5 °F 10.6 °F 1011.7 in SW 7.4 mph 7.4 mph 64 % 0.0 in
23:56 17.6 °F 10.7 °F 1011.7 in SW 7.6 mph 7.6 mph 64 % 0.0 in
Meteo Sesrovires
Elogis d' Weather Underground - 1.5 mb

Guio original per  Jim McMurry - jmcmurry@mwt.net Adaptat per a la plantilla per  Wim van der Kuil - Leuven-Template.eu

Trobareu la nostra informacio del temps tambe a:

Weather Underground

AWEKAS